sensor_id;sensor_type;location;lat;lon;timestamp;P1;durP1;ratioP1;P2;durP2;ratioP2
52898;SDS011;38763;53.096;6.062;2023-06-14T00:00:14;4.53;;;1.60;;
52898;SDS011;38763;53.096;6.062;2023-06-14T00:02:40;7.93;;;2.10;;
52898;SDS011;38763;53.096;6.062;2023-06-14T00:05:06;6.05;;;1.80;;
52898;SDS011;38763;53.096;6.062;2023-06-14T00:07:34;7.47;;;2.17;;
52898;SDS011;38763;53.096;6.062;2023-06-14T00:10:07;9.60;;;2.30;;
52898;SDS011;38763;53.096;6.062;2023-06-14T00:12:34;6.30;;;1.85;;
52898;SDS011;38763;53.096;6.062;2023-06-14T00:15:00;6.43;;;1.85;;
52898;SDS011;38763;53.096;6.062;2023-06-14T00:17:28;7.03;;;2.00;;
52898;SDS011;38763;53.096;6.062;2023-06-14T00:19:57;7.25;;;2.00;;
52898;SDS011;38763;53.096;6.062;2023-06-14T00:22:24;6.78;;;2.13;;
52898;SDS011;38763;53.096;6.062;2023-06-14T00:24:50;6.82;;;1.98;;
52898;SDS011;38763;53.096;6.062;2023-06-14T00:27:16;4.75;;;2.00;;
52898;SDS011;38763;53.096;6.062;2023-06-14T00:29:42;9.57;;;2.08;;
52898;SDS011;38763;53.096;6.062;2023-06-14T00:32:08;7.40;;;1.90;;
52898;SDS011;38763;53.096;6.062;2023-06-14T00:34:33;6.70;;;2.10;;
52898;SDS011;38763;53.096;6.062;2023-06-14T00:36:59;6.05;;;2.15;;
52898;SDS011;38763;53.096;6.062;2023-06-14T00:39:26;5.18;;;2.20;;
52898;SDS011;38763;53.096;6.062;2023-06-14T00:41:51;9.07;;;2.05;;
52898;SDS011;38763;53.096;6.062;2023-06-14T00:44:17;8.10;;;2.10;;
52898;SDS011;38763;53.096;6.062;2023-06-14T00:46:45;7.95;;;2.10;;
52898;SDS011;38763;53.096;6.062;2023-06-14T00:49:11;5.55;;;2.00;;
52898;SDS011;38763;53.096;6.062;2023-06-14T00:51:40;4.97;;;2.10;;
52898;SDS011;38763;53.096;6.062;2023-06-14T00:54:09;7.53;;;2.30;;
52898;SDS011;38763;53.096;6.062;2023-06-14T00:56:35;4.78;;;1.60;;
52898;SDS011;38763;53.096;6.062;2023-06-14T00:59:02;4.78;;;2.10;;
52898;SDS011;38763;53.096;6.062;2023-06-14T01:01:28;4.75;;;2.00;;
52898;SDS011;38763;53.096;6.062;2023-06-14T01:03:57;5.53;;;2.10;;
52898;SDS011;38763;53.096;6.062;2023-06-14T01:12:15;5.05;;;1.80;;
52898;SDS011;38763;53.096;6.062;2023-06-14T01:15:02;6.38;;;2.03;;
52898;SDS011;38763;53.096;6.062;2023-06-14T01:17:29;4.68;;;1.90;;
52898;SDS011;38763;53.096;6.062;2023-06-14T01:20:05;5.72;;;1.75;;
52898;SDS011;38763;53.096;6.062;2023-06-14T01:22:35;5.40;;;1.90;;
52898;SDS011;38763;53.096;6.062;2023-06-14T01:25:01;6.43;;;2.42;;
52898;SDS011;38763;53.096;6.062;2023-06-14T01:27:26;7.80;;;1.90;;
52898;SDS011;38763;53.096;6.062;2023-06-14T01:29:57;4.65;;;1.80;;
52898;SDS011;38763;53.096;6.062;2023-06-14T01:32:24;4.65;;;1.65;;
52898;SDS011;38763;53.096;6.062;2023-06-14T01:34:53;5.43;;;1.80;;
52898;SDS011;38763;53.096;6.062;2023-06-14T01:37:19;6.68;;;2.30;;
52898;SDS011;38763;53.096;6.062;2023-06-14T01:39:47;5.50;;;2.10;;
52898;SDS011;38763;53.096;6.062;2023-06-14T01:42:14;4.93;;;2.17;;
52898;SDS011;38763;53.096;6.062;2023-06-14T01:44:41;14.20;;;2.50;;
52898;SDS011;38763;53.096;6.062;2023-06-14T01:47:09;6.32;;;2.10;;
52898;SDS011;38763;53.096;6.062;2023-06-14T01:49:35;4.55;;;1.85;;
52898;SDS011;38763;53.096;6.062;2023-06-14T01:52:01;3.42;;;1.90;;
52898;SDS011;38763;53.096;6.062;2023-06-14T01:54:26;6.68;;;1.98;;
52898;SDS011;38763;53.096;6.062;2023-06-14T01:56:52;5.72;;;1.92;;
52898;SDS011;38763;53.096;6.062;2023-06-14T01:59:18;6.35;;;2.10;;
52898;SDS011;38763;53.096;6.062;2023-06-14T02:01:44;8.63;;;2.47;;
52898;SDS011;38763;53.096;6.062;2023-06-14T02:04:11;5.60;;;2.00;;
52898;SDS011;38763;53.096;6.062;2023-06-14T02:06:37;5.47;;;2.20;;
52898;SDS011;38763;53.096;6.062;2023-06-14T02:09:03;4.25;;;1.90;;
52898;SDS011;38763;53.096;6.062;2023-06-14T02:11:29;7.97;;;2.10;;
52898;SDS011;38763;53.096;6.062;2023-06-14T02:13:54;8.30;;;2.05;;
52898;SDS011;38763;53.096;6.062;2023-06-14T02:16:20;9.82;;;2.20;;
52898;SDS011;38763;53.096;6.062;2023-06-14T02:18:47;6.55;;;2.03;;
52898;SDS011;38763;53.096;6.062;2023-06-14T02:21:13;4.38;;;1.83;;
52898;SDS011;38763;53.096;6.062;2023-06-14T02:23:39;6.30;;;1.88;;
52898;SDS011;38763;53.096;6.062;2023-06-14T02:26:05;6.63;;;1.80;;
52898;SDS011;38763;53.096;6.062;2023-06-14T02:28:31;6.53;;;1.83;;
52898;SDS011;38763;53.096;6.062;2023-06-14T02:30:57;4.65;;;1.85;;
52898;SDS011;38763;53.096;6.062;2023-06-14T02:33:22;5.90;;;1.80;;
52898;SDS011;38763;53.096;6.062;2023-06-14T02:35:48;7.30;;;2.00;;
52898;SDS011;38763;53.096;6.062;2023-06-14T02:38:15;6.28;;;1.95;;
52898;SDS011;38763;53.096;6.062;2023-06-14T02:40:40;5.05;;;1.80;;
52898;SDS011;38763;53.096;6.062;2023-06-14T02:43:07;6.82;;;1.90;;
52898;SDS011;38763;53.096;6.062;2023-06-14T02:45:33;8.23;;;1.90;;
52898;SDS011;38763;53.096;6.062;2023-06-14T02:47:59;4.65;;;1.77;;
52898;SDS011;38763;53.096;6.062;2023-06-14T02:50:25;7.72;;;2.00;;
52898;SDS011;38763;53.096;6.062;2023-06-14T02:52:51;5.47;;;2.30;;
52898;SDS011;38763;53.096;6.062;2023-06-14T02:55:17;5.72;;;2.50;;
52898;SDS011;38763;53.096;6.062;2023-06-14T02:57:43;5.93;;;1.83;;
52898;SDS011;38763;53.096;6.062;2023-06-14T03:00:09;5.32;;;1.80;;
52898;SDS011;38763;53.096;6.062;2023-06-14T03:02:38;5.63;;;2.03;;
52898;SDS011;38763;53.096;6.062;2023-06-14T03:05:03;4.65;;;1.88;;
52898;SDS011;38763;53.096;6.062;2023-06-14T03:07:31;6.82;;;2.20;;
52898;SDS011;38763;53.096;6.062;2023-06-14T03:09:57;7.55;;;2.10;;
52898;SDS011;38763;53.096;6.062;2023-06-14T03:12:23;6.75;;;2.00;;
52898;SDS011;38763;53.096;6.062;2023-06-14T03:14:51;3.95;;;1.85;;
52898;SDS011;38763;53.096;6.062;2023-06-14T03:17:18;5.22;;;2.00;;
52898;SDS011;38763;53.096;6.062;2023-06-14T03:19:44;4.90;;;1.80;;
52898;SDS011;38763;53.096;6.062;2023-06-14T03:22:10;5.65;;;2.00;;
52898;SDS011;38763;53.096;6.062;2023-06-14T03:24:36;7.93;;;2.08;;
52898;SDS011;38763;53.096;6.062;2023-06-14T03:27:02;6.20;;;2.60;;
52898;SDS011;38763;53.096;6.062;2023-06-14T03:29:28;8.70;;;2.22;;
52898;SDS011;38763;53.096;6.062;2023-06-14T03:32:01;7.40;;;2.10;;
52898;SDS011;38763;53.096;6.062;2023-06-14T03:34:28;7.40;;;2.10;;
52898;SDS011;38763;53.096;6.062;2023-06-14T03:36:54;8.35;;;2.30;;
52898;SDS011;38763;53.096;6.062;2023-06-14T03:39:20;5.00;;;2.30;;
52898;SDS011;38763;53.096;6.062;2023-06-14T03:41:46;4.80;;;2.17;;
52898;SDS011;38763;53.096;6.062;2023-06-14T03:44:13;6.22;;;2.17;;
52898;SDS011;38763;53.096;6.062;2023-06-14T03:46:41;7.80;;;2.25;;
52898;SDS011;38763;53.096;6.062;2023-06-14T03:49:07;6.32;;;2.08;;
52898;SDS011;38763;53.096;6.062;2023-06-14T03:51:33;7.85;;;2.20;;
52898;SDS011;38763;53.096;6.062;2023-06-14T03:54:00;5.30;;;2.20;;
52898;SDS011;38763;53.096;6.062;2023-06-14T03:56:26;8.07;;;2.17;;
52898;SDS011;38763;53.096;6.062;2023-06-14T03:58:52;8.73;;;2.60;;
52898;SDS011;38763;53.096;6.062;2023-06-14T04:01:17;4.72;;;2.10;;
52898;SDS011;38763;53.096;6.062;2023-06-14T04:03:43;8.15;;;2.25;;
52898;SDS011;38763;53.096;6.062;2023-06-14T04:06:09;5.80;;;2.40;;
52898;SDS011;38763;53.096;6.062;2023-06-14T04:08:34;4.60;;;2.15;;
52898;SDS011;38763;53.096;6.062;2023-06-14T04:11:01;5.78;;;2.20;;
52898;SDS011;38763;53.096;6.062;2023-06-14T04:13:27;7.03;;;2.28;;
52898;SDS011;38763;53.096;6.062;2023-06-14T04:15:52;7.95;;;2.50;;
52898;SDS011;38763;53.096;6.062;2023-06-14T04:18:18;7.07;;;2.22;;
52898;SDS011;38763;53.096;6.062;2023-06-14T04:20:45;4.97;;;2.20;;
52898;SDS011;38763;53.096;6.062;2023-06-14T04:23:14;6.93;;;2.58;;
52898;SDS011;38763;53.096;6.062;2023-06-14T04:25:43;5.13;;;2.30;;
52898;SDS011;38763;53.096;6.062;2023-06-14T04:28:13;9.80;;;2.40;;
52898;SDS011;38763;53.096;6.062;2023-06-14T04:30:41;5.28;;;2.30;;
52898;SDS011;38763;53.096;6.062;2023-06-14T04:33:07;5.63;;;2.58;;
52898;SDS011;38763;53.096;6.062;2023-06-14T04:35:35;4.97;;;2.20;;
52898;SDS011;38763;53.096;6.062;2023-06-14T04:38:02;7.55;;;2.22;;
52898;SDS011;38763;53.096;6.062;2023-06-14T04:40:30;6.50;;;2.30;;
52898;SDS011;38763;53.096;6.062;2023-06-14T04:42:56;6.30;;;2.63;;
52898;SDS011;38763;53.096;6.062;2023-06-14T04:45:22;7.32;;;2.40;;
52898;SDS011;38763;53.096;6.062;2023-06-14T04:47:49;5.50;;;2.60;;
52898;SDS011;38763;53.096;6.062;2023-06-14T04:50:15;9.25;;;2.67;;
52898;SDS011;38763;53.096;6.062;2023-06-14T04:52:42;7.78;;;2.58;;
52898;SDS011;38763;53.096;6.062;2023-06-14T04:55:08;4.70;;;2.70;;
52898;SDS011;38763;53.096;6.062;2023-06-14T04:57:33;5.90;;;2.35;;
52898;SDS011;38763;53.096;6.062;2023-06-14T05:00:00;7.72;;;2.60;;
52898;SDS011;38763;53.096;6.062;2023-06-14T05:02:29;5.93;;;2.70;;
52898;SDS011;38763;53.096;6.062;2023-06-14T05:04:55;6.68;;;2.45;;
52898;SDS011;38763;53.096;6.062;2023-06-14T05:07:21;9.57;;;2.75;;
52898;SDS011;38763;53.096;6.062;2023-06-14T05:09:49;5.80;;;2.58;;
52898;SDS011;38763;53.096;6.062;2023-06-14T05:12:14;6.57;;;2.65;;
52898;SDS011;38763;53.096;6.062;2023-06-14T05:14:43;7.72;;;2.85;;
52898;SDS011;38763;53.096;6.062;2023-06-14T05:17:09;7.15;;;2.83;;
52898;SDS011;38763;53.096;6.062;2023-06-14T05:19:35;8.60;;;2.70;;
52898;SDS011;38763;53.096;6.062;2023-06-14T05:22:01;7.85;;;2.60;;
52898;SDS011;38763;53.096;6.062;2023-06-14T05:24:28;8.32;;;2.83;;
52898;SDS011;38763;53.096;6.062;2023-06-14T05:26:55;6.53;;;2.47;;
52898;SDS011;38763;53.096;6.062;2023-06-14T05:29:21;8.60;;;2.80;;
52898;SDS011;38763;53.096;6.062;2023-06-14T05:31:47;7.10;;;2.70;;
52898;SDS011;38763;53.096;6.062;2023-06-14T05:34:12;10.98;;;2.70;;
52898;SDS011;38763;53.096;6.062;2023-06-14T05:36:38;6.75;;;2.65;;
52898;SDS011;38763;53.096;6.062;2023-06-14T05:39:04;6.15;;;2.97;;
52898;SDS011;38763;53.096;6.062;2023-06-14T05:41:30;6.00;;;2.95;;
52898;SDS011;38763;53.096;6.062;2023-06-14T05:43:56;6.50;;;3.05;;
52898;SDS011;38763;53.096;6.062;2023-06-14T05:46:22;12.20;;;2.67;;
52898;SDS011;38763;53.096;6.062;2023-06-14T05:48:53;7.35;;;2.70;;
52898;SDS011;38763;53.096;6.062;2023-06-14T05:51:20;6.13;;;2.88;;
52898;SDS011;38763;53.096;6.062;2023-06-14T05:53:47;9.48;;;2.90;;
52898;SDS011;38763;53.096;6.062;2023-06-14T05:56:13;7.93;;;2.60;;
52898;SDS011;38763;53.096;6.062;2023-06-14T05:58:40;10.73;;;2.90;;
52898;SDS011;38763;53.096;6.062;2023-06-14T06:01:06;7.75;;;2.80;;
52898;SDS011;38763;53.096;6.062;2023-06-14T06:03:31;7.88;;;2.72;;
52898;SDS011;38763;53.096;6.062;2023-06-14T06:05:57;6.32;;;2.42;;
52898;SDS011;38763;53.096;6.062;2023-06-14T06:08:23;7.55;;;3.08;;
52898;SDS011;38763;53.096;6.062;2023-06-14T06:10:49;5.22;;;2.65;;
52898;SDS011;38763;53.096;6.062;2023-06-14T06:13:15;8.18;;;2.95;;
52898;SDS011;38763;53.096;6.062;2023-06-14T06:15:41;6.03;;;3.00;;
52898;SDS011;38763;53.096;6.062;2023-06-14T06:18:06;8.02;;;2.92;;
52898;SDS011;38763;53.096;6.062;2023-06-14T06:20:32;6.07;;;2.65;;
52898;SDS011;38763;53.096;6.062;2023-06-14T06:22:58;6.30;;;2.85;;
52898;SDS011;38763;53.096;6.062;2023-06-14T06:25:25;5.88;;;2.50;;
52898;SDS011;38763;53.096;6.062;2023-06-14T06:27:52;5.15;;;2.50;;
52898;SDS011;38763;53.096;6.062;2023-06-14T06:30:19;5.93;;;2.58;;
52898;SDS011;38763;53.096;6.062;2023-06-14T06:32:45;6.00;;;2.28;;
52898;SDS011;38763;53.096;6.062;2023-06-14T06:35:11;8.13;;;2.80;;
52898;SDS011;38763;53.096;6.062;2023-06-14T06:37:38;7.22;;;2.60;;
52898;SDS011;38763;53.096;6.062;2023-06-14T06:40:04;8.02;;;2.50;;
52898;SDS011;38763;53.096;6.062;2023-06-14T06:42:32;7.70;;;2.60;;
52898;SDS011;38763;53.096;6.062;2023-06-14T06:44:58;4.93;;;2.60;;
52898;SDS011;38763;53.096;6.062;2023-06-14T06:47:23;4.97;;;2.25;;
52898;SDS011;38763;53.096;6.062;2023-06-14T06:49:50;5.13;;;1.98;;
52898;SDS011;38763;53.096;6.062;2023-06-14T06:52:16;4.68;;;2.40;;
52898;SDS011;38763;53.096;6.062;2023-06-14T06:54:41;4.95;;;2.13;;
52898;SDS011;38763;53.096;6.062;2023-06-14T06:57:07;6.82;;;1.92;;
52898;SDS011;38763;53.096;6.062;2023-06-14T06:59:34;7.20;;;2.00;;
52898;SDS011;38763;53.096;6.062;2023-06-14T07:02:00;5.00;;;2.20;;
52898;SDS011;38763;53.096;6.062;2023-06-14T07:04:26;6.30;;;3.15;;
52898;SDS011;38763;53.096;6.062;2023-06-14T07:06:51;10.15;;;2.00;;
52898;SDS011;38763;53.096;6.062;2023-06-14T07:09:17;5.15;;;2.00;;
52898;SDS011;38763;53.096;6.062;2023-06-14T07:11:45;4.65;;;1.88;;
52898;SDS011;38763;53.096;6.062;2023-06-14T07:14:11;5.03;;;2.38;;
52898;SDS011;38763;53.096;6.062;2023-06-14T07:16:37;5.68;;;1.92;;
52898;SDS011;38763;53.096;6.062;2023-06-14T07:19:03;3.75;;;1.80;;
52898;SDS011;38763;53.096;6.062;2023-06-14T07:21:30;3.80;;;1.90;;
52898;SDS011;38763;53.096;6.062;2023-06-14T07:23:56;5.90;;;2.50;;
52898;SDS011;38763;53.096;6.062;2023-06-14T07:26:22;4.30;;;1.77;;
52898;SDS011;38763;53.096;6.062;2023-06-14T07:28:48;5.00;;;1.73;;
52898;SDS011;38763;53.096;6.062;2023-06-14T07:31:14;3.55;;;1.80;;
52898;SDS011;38763;53.096;6.062;2023-06-14T07:33:41;4.93;;;2.35;;
52898;SDS011;38763;53.096;6.062;2023-06-14T07:36:07;4.85;;;1.80;;
52898;SDS011;38763;53.096;6.062;2023-06-14T07:38:33;5.88;;;2.00;;
52898;SDS011;38763;53.096;6.062;2023-06-14T07:40:59;3.33;;;1.80;;
52898;SDS011;38763;53.096;6.062;2023-06-14T07:43:25;3.50;;;1.70;;
52898;SDS011;38763;53.096;6.062;2023-06-14T07:45:51;4.68;;;1.70;;
52898;SDS011;38763;53.096;6.062;2023-06-14T07:48:17;6.15;;;2.10;;
52898;SDS011;38763;53.096;6.062;2023-06-14T07:50:43;8.32;;;1.90;;
52898;SDS011;38763;53.096;6.062;2023-06-14T07:53:09;9.10;;;1.70;;
52898;SDS011;38763;53.096;6.062;2023-06-14T07:55:35;8.90;;;2.20;;
52898;SDS011;38763;53.096;6.062;2023-06-14T07:58:05;4.97;;;1.63;;
52898;SDS011;38763;53.096;6.062;2023-06-14T08:00:31;6.00;;;1.95;;
52898;SDS011;38763;53.096;6.062;2023-06-14T08:02:57;6.57;;;2.10;;
52898;SDS011;38763;53.096;6.062;2023-06-14T08:05:26;4.88;;;2.00;;
52898;SDS011;38763;53.096;6.062;2023-06-14T08:07:52;4.60;;;1.85;;
52898;SDS011;38763;53.096;6.062;2023-06-14T08:10:18;4.20;;;1.80;;
52898;SDS011;38763;53.096;6.062;2023-06-14T08:12:43;6.63;;;2.25;;
52898;SDS011;38763;53.096;6.062;2023-06-14T08:15:09;4.03;;;1.85;;
52898;SDS011;38763;53.096;6.062;2023-06-14T08:17:35;8.68;;;1.88;;
52898;SDS011;38763;53.096;6.062;2023-06-14T08:20:01;4.88;;;1.73;;
52898;SDS011;38763;53.096;6.062;2023-06-14T08:22:29;4.72;;;1.83;;
52898;SDS011;38763;53.096;6.062;2023-06-14T08:24:57;4.75;;;2.05;;
52898;SDS011;38763;53.096;6.062;2023-06-14T08:27:23;5.35;;;1.80;;
52898;SDS011;38763;53.096;6.062;2023-06-14T08:29:49;5.18;;;1.80;;
52898;SDS011;38763;53.096;6.062;2023-06-14T08:32:15;4.70;;;1.70;;
52898;SDS011;38763;53.096;6.062;2023-06-14T08:34:40;3.22;;;1.73;;
52898;SDS011;38763;53.096;6.062;2023-06-14T08:37:06;3.40;;;1.83;;
52898;SDS011;38763;53.096;6.062;2023-06-14T08:39:32;4.55;;;1.50;;
52898;SDS011;38763;53.096;6.062;2023-06-14T08:41:58;4.57;;;1.73;;
52898;SDS011;38763;53.096;6.062;2023-06-14T08:44:27;5.22;;;1.70;;
52898;SDS011;38763;53.096;6.062;2023-06-14T08:46:54;3.78;;;1.75;;
52898;SDS011;38763;53.096;6.062;2023-06-14T08:49:22;5.05;;;1.70;;
52898;SDS011;38763;53.096;6.062;2023-06-14T08:51:50;6.40;;;1.90;;
52898;SDS011;38763;53.096;6.062;2023-06-14T08:54:22;7.18;;;2.05;;
52898;SDS011;38763;53.096;6.062;2023-06-14T08:56:49;5.80;;;1.60;;
52898;SDS011;38763;53.096;6.062;2023-06-14T08:59:16;5.47;;;1.92;;
52898;SDS011;38763;53.096;6.062;2023-06-14T09:01:43;2.63;;;1.55;;
52898;SDS011;38763;53.096;6.062;2023-06-14T09:04:10;3.83;;;1.42;;
52898;SDS011;38763;53.096;6.062;2023-06-14T09:06:36;5.85;;;1.73;;
52898;SDS011;38763;53.096;6.062;2023-06-14T09:09:02;3.63;;;1.65;;
52898;SDS011;38763;53.096;6.062;2023-06-14T09:11:29;5.13;;;1.63;;
52898;SDS011;38763;53.096;6.062;2023-06-14T09:13:55;3.05;;;1.63;;
52898;SDS011;38763;53.096;6.062;2023-06-14T09:16:22;6.95;;;1.80;;
52898;SDS011;38763;53.096;6.062;2023-06-14T09:18:48;5.18;;;1.80;;
52898;SDS011;38763;53.096;6.062;2023-06-14T09:21:15;3.88;;;1.50;;
52898;SDS011;38763;53.096;6.062;2023-06-14T09:23:42;4.28;;;2.08;;
52898;SDS011;38763;53.096;6.062;2023-06-14T09:26:19;2.85;;;1.50;;
52898;SDS011;38763;53.096;6.062;2023-06-14T09:28:46;3.55;;;1.50;;
52898;SDS011;38763;53.096;6.062;2023-06-14T09:31:14;5.10;;;1.70;;
52898;SDS011;38763;53.096;6.062;2023-06-14T09:33:48;4.20;;;1.50;;
52898;SDS011;38763;53.096;6.062;2023-06-14T09:36:24;6.03;;;1.70;;
52898;SDS011;38763;53.096;6.062;2023-06-14T09:38:55;2.85;;;1.50;;
52898;SDS011;38763;53.096;6.062;2023-06-14T09:41:30;4.90;;;1.70;;
52898;SDS011;38763;53.096;6.062;2023-06-14T09:43:57;4.93;;;1.60;;
52898;SDS011;38763;53.096;6.062;2023-06-14T09:46:26;4.82;;;1.70;;
52898;SDS011;38763;53.096;6.062;2023-06-14T09:48:52;4.38;;;1.90;;
52898;SDS011;38763;53.096;6.062;2023-06-14T09:51:18;4.95;;;1.80;;
52898;SDS011;38763;53.096;6.062;2023-06-14T09:53:46;3.55;;;1.42;;
52898;SDS011;38763;53.096;6.062;2023-06-14T09:56:14;3.10;;;1.60;;
52898;SDS011;38763;53.096;6.062;2023-06-14T09:58:48;5.18;;;1.80;;
52898;SDS011;38763;53.096;6.062;2023-06-14T10:01:19;5.03;;;2.05;;
52898;SDS011;38763;53.096;6.062;2023-06-14T10:03:45;4.00;;;1.60;;
52898;SDS011;38763;53.096;6.062;2023-06-14T10:06:13;6.20;;;1.70;;
52898;SDS011;38763;53.096;6.062;2023-06-14T10:08:39;3.78;;;1.70;;
52898;SDS011;38763;53.096;6.062;2023-06-14T10:11:06;4.68;;;1.80;;
52898;SDS011;38763;53.096;6.062;2023-06-14T10:13:32;3.15;;;1.67;;
52898;SDS011;38763;53.096;6.062;2023-06-14T10:16:09;4.28;;;1.90;;
52898;SDS011;38763;53.096;6.062;2023-06-14T10:21:25;3.72;;;1.70;;
52898;SDS011;38763;53.096;6.062;2023-06-14T10:24:07;4.25;;;1.80;;
52898;SDS011;38763;53.096;6.062;2023-06-14T10:26:39;5.50;;;1.80;;
52898;SDS011;38763;53.096;6.062;2023-06-14T10:29:19;3.05;;;1.58;;
52898;SDS011;38763;53.096;6.062;2023-06-14T10:31:46;5.40;;;2.08;;
52898;SDS011;38763;53.096;6.062;2023-06-14T10:34:20;5.53;;;1.80;;
52898;SDS011;38763;53.096;6.062;2023-06-14T10:37:03;4.60;;;1.75;;
52898;SDS011;38763;53.096;6.062;2023-06-14T10:39:32;5.25;;;1.60;;
52898;SDS011;38763;53.096;6.062;2023-06-14T10:42:06;7.75;;;1.73;;
52898;SDS011;38763;53.096;6.062;2023-06-14T10:46:59;6.78;;;2.00;;
52898;SDS011;38763;53.096;6.062;2023-06-14T10:49:37;4.82;;;1.75;;
52898;SDS011;38763;53.096;6.062;2023-06-14T10:57:27;4.88;;;1.90;;
52898;SDS011;38763;53.096;6.062;2023-06-14T10:59:53;2.53;;;1.55;;
52898;SDS011;38763;53.096;6.062;2023-06-14T11:05:13;6.05;;;2.00;;
52898;SDS011;38763;53.096;6.062;2023-06-14T11:13:03;2.85;;;1.50;;
52898;SDS011;38763;53.096;6.062;2023-06-14T11:15:33;5.45;;;1.90;;
52898;SDS011;38763;53.096;6.062;2023-06-14T11:18:01;3.30;;;1.70;;
52898;SDS011;38763;53.096;6.062;2023-06-14T11:20:30;4.00;;;1.60;;
52898;SDS011;38763;53.096;6.062;2023-06-14T11:22:56;5.03;;;1.70;;
52898;SDS011;38763;53.096;6.062;2023-06-14T11:25:22;5.97;;;2.08;;
52898;SDS011;38763;53.096;6.062;2023-06-14T11:27:51;6.32;;;1.77;;
52898;SDS011;38763;53.096;6.062;2023-06-14T11:30:17;4.85;;;1.90;;
52898;SDS011;38763;53.096;6.062;2023-06-14T11:32:49;5.90;;;1.77;;
52898;SDS011;38763;53.096;6.062;2023-06-14T11:35:17;3.78;;;1.80;;
52898;SDS011;38763;53.096;6.062;2023-06-14T11:37:43;3.42;;;1.60;;
52898;SDS011;38763;53.096;6.062;2023-06-14T11:40:09;5.10;;;1.85;;
52898;SDS011;38763;53.096;6.062;2023-06-14T11:42:37;5.80;;;1.60;;
52898;SDS011;38763;53.096;6.062;2023-06-14T11:45:07;4.72;;;1.58;;
52898;SDS011;38763;53.096;6.062;2023-06-14T11:47:35;3.55;;;1.63;;
52898;SDS011;38763;53.096;6.062;2023-06-14T11:50:01;5.47;;;1.70;;
52898;SDS011;38763;53.096;6.062;2023-06-14T11:52:31;3.83;;;1.77;;
52898;SDS011;38763;53.096;6.062;2023-06-14T11:54:57;5.57;;;1.90;;
52898;SDS011;38763;53.096;6.062;2023-06-14T11:57:23;8.15;;;1.65;;
52898;SDS011;38763;53.096;6.062;2023-06-14T11:59:50;4.22;;;1.75;;
52898;SDS011;38763;53.096;6.062;2023-06-14T12:02:16;4.05;;;1.95;;
52898;SDS011;38763;53.096;6.062;2023-06-14T12:04:43;5.22;;;1.70;;
52898;SDS011;38763;53.096;6.062;2023-06-14T12:07:12;3.63;;;1.58;;
52898;SDS011;38763;53.096;6.062;2023-06-14T12:10:27;4.38;;;1.58;;
52898;SDS011;38763;53.096;6.062;2023-06-14T12:12:34;3.53;;;1.70;;
52898;SDS011;38763;53.096;6.062;2023-06-14T12:15:02;5.25;;;1.73;;
52898;SDS011;38763;53.096;6.062;2023-06-14T12:17:33;3.50;;;1.50;;
52898;SDS011;38763;53.096;6.062;2023-06-14T12:20:04;4.53;;;1.50;;
52898;SDS011;38763;53.096;6.062;2023-06-14T12:22:39;2.65;;;1.50;;
52898;SDS011;38763;53.096;6.062;2023-06-14T12:25:27;5.18;;;1.58;;
52898;SDS011;38763;53.096;6.062;2023-06-14T12:28:03;7.15;;;1.70;;
52898;SDS011;38763;53.096;6.062;2023-06-14T12:30:33;4.80;;;1.95;;
52898;SDS011;38763;53.096;6.062;2023-06-14T12:33:01;3.70;;;1.60;;
52898;SDS011;38763;53.096;6.062;2023-06-14T12:35:30;6.30;;;1.70;;
52898;SDS011;38763;53.096;6.062;2023-06-14T12:37:56;4.93;;;1.67;;
52898;SDS011;38763;53.096;6.062;2023-06-14T12:40:21;4.25;;;1.27;;
52898;SDS011;38763;53.096;6.062;2023-06-14T12:42:47;2.05;;;1.23;;
52898;SDS011;38763;53.096;6.062;2023-06-14T12:45:13;3.97;;;1.20;;
52898;SDS011;38763;53.096;6.062;2023-06-14T12:47:39;5.07;;;1.40;;
52898;SDS011;38763;53.096;6.062;2023-06-14T12:50:06;5.63;;;1.70;;
52898;SDS011;38763;53.096;6.062;2023-06-14T12:52:32;2.55;;;1.27;;
52898;SDS011;38763;53.096;6.062;2023-06-14T12:55:01;3.50;;;1.45;;
52898;SDS011;38763;53.096;6.062;2023-06-14T12:57:28;2.60;;;1.25;;
52898;SDS011;38763;53.096;6.062;2023-06-14T12:59:54;5.93;;;1.30;;
52898;SDS011;38763;53.096;6.062;2023-06-14T13:02:20;4.10;;;1.40;;
52898;SDS011;38763;53.096;6.062;2023-06-14T13:04:47;4.00;;;1.58;;
52898;SDS011;38763;53.096;6.062;2023-06-14T13:07:13;8.43;;;2.45;;
52898;SDS011;38763;53.096;6.062;2023-06-14T13:09:40;3.92;;;1.48;;
52898;SDS011;38763;53.096;6.062;2023-06-14T13:12:06;7.95;;;1.50;;
52898;SDS011;38763;53.096;6.062;2023-06-14T13:14:33;4.45;;;1.58;;
52898;SDS011;38763;53.096;6.062;2023-06-14T13:16:58;2.60;;;1.20;;
52898;SDS011;38763;53.096;6.062;2023-06-14T13:19:24;3.33;;;1.30;;
52898;SDS011;38763;53.096;6.062;2023-06-14T13:21:50;3.97;;;1.35;;
52898;SDS011;38763;53.096;6.062;2023-06-14T13:24:16;7.45;;;1.45;;
52898;SDS011;38763;53.096;6.062;2023-06-14T13:26:42;3.60;;;1.30;;
52898;SDS011;38763;53.096;6.062;2023-06-14T13:29:07;4.45;;;1.30;;
52898;SDS011;38763;53.096;6.062;2023-06-14T13:31:33;3.00;;;1.17;;
52898;SDS011;38763;53.096;6.062;2023-06-14T13:33:59;3.92;;;1.38;;
52898;SDS011;38763;53.096;6.062;2023-06-14T13:36:24;3.90;;;1.48;;
52898;SDS011;38763;53.096;6.062;2023-06-14T13:38:50;4.10;;;1.42;;
52898;SDS011;38763;53.096;6.062;2023-06-14T13:41:17;6.22;;;1.23;;
52898;SDS011;38763;53.096;6.062;2023-06-14T13:43:43;3.67;;;1.40;;
52898;SDS011;38763;53.096;6.062;2023-06-14T13:46:09;4.53;;;1.40;;
52898;SDS011;38763;53.096;6.062;2023-06-14T13:48:34;3.45;;;1.40;;
52898;SDS011;38763;53.096;6.062;2023-06-14T13:51:00;6.65;;;1.60;;
52898;SDS011;38763;53.096;6.062;2023-06-14T13:53:26;3.85;;;1.30;;
52898;SDS011;38763;53.096;6.062;2023-06-14T13:55:52;4.10;;;1.45;;
52898;SDS011;38763;53.096;6.062;2023-06-14T13:58:17;4.20;;;1.40;;
52898;SDS011;38763;53.096;6.062;2023-06-14T14:00:44;6.88;;;1.55;;
52898;SDS011;38763;53.096;6.062;2023-06-14T14:03:09;3.83;;;1.42;;
52898;SDS011;38763;53.096;6.062;2023-06-14T14:05:36;5.15;;;1.40;;
52898;SDS011;38763;53.096;6.062;2023-06-14T14:08:02;4.03;;;1.50;;
52898;SDS011;38763;53.096;6.062;2023-06-14T14:10:28;3.70;;;1.40;;
52898;SDS011;38763;53.096;6.062;2023-06-14T14:12:54;4.78;;;1.52;;
52898;SDS011;38763;53.096;6.062;2023-06-14T14:15:20;2.92;;;1.48;;
52898;SDS011;38763;53.096;6.062;2023-06-14T14:17:46;3.83;;;1.40;;
52898;SDS011;38763;53.096;6.062;2023-06-14T14:20:12;2.35;;;1.38;;
52898;SDS011;38763;53.096;6.062;2023-06-14T14:22:41;5.85;;;1.55;;
52898;SDS011;38763;53.096;6.062;2023-06-14T14:25:07;2.88;;;1.33;;
52898;SDS011;38763;53.096;6.062;2023-06-14T14:27:33;3.28;;;1.45;;
52898;SDS011;38763;53.096;6.062;2023-06-14T14:29:59;7.32;;;1.88;;
52898;SDS011;38763;53.096;6.062;2023-06-14T14:32:24;3.22;;;1.30;;
52898;SDS011;38763;53.096;6.062;2023-06-14T14:34:50;3.95;;;1.50;;
52898;SDS011;38763;53.096;6.062;2023-06-14T14:37:16;3.20;;;1.40;;
52898;SDS011;38763;53.096;6.062;2023-06-14T14:39:41;5.50;;;1.50;;
52898;SDS011;38763;53.096;6.062;2023-06-14T14:42:09;4.93;;;1.50;;
52898;SDS011;38763;53.096;6.062;2023-06-14T14:44:36;2.70;;;1.48;;
52898;SDS011;38763;53.096;6.062;2023-06-14T14:47:01;6.55;;;1.50;;
52898;SDS011;38763;53.096;6.062;2023-06-14T14:49:28;4.30;;;1.55;;
52898;SDS011;38763;53.096;6.062;2023-06-14T14:51:54;5.72;;;1.60;;
52898;SDS011;38763;53.096;6.062;2023-06-14T14:54:21;6.15;;;1.80;;
52898;SDS011;38763;53.096;6.062;2023-06-14T14:56:47;6.57;;;1.67;;
52898;SDS011;38763;53.096;6.062;2023-06-14T14:59:13;7.80;;;1.58;;
52898;SDS011;38763;53.096;6.062;2023-06-14T15:01:38;2.88;;;1.50;;
52898;SDS011;38763;53.096;6.062;2023-06-14T15:04:04;4.75;;;1.50;;
52898;SDS011;38763;53.096;6.062;2023-06-14T15:06:29;5.80;;;1.83;;
52898;SDS011;38763;53.096;6.062;2023-06-14T15:08:55;5.32;;;1.50;;
52898;SDS011;38763;53.096;6.062;2023-06-14T15:11:21;3.67;;;1.40;;